createdAt,value
2019-01-08T00:01:55.726Z,92.90
2019-01-08T00:04:22.668Z,92.80
2019-01-08T00:06:49.632Z,92.50
2019-01-08T00:09:16.581Z,93.10
2019-01-08T00:11:43.536Z,93.30
2019-01-08T00:14:10.492Z,93.20
2019-01-08T00:16:37.507Z,93.30
2019-01-08T00:19:04.452Z,93.00
2019-01-08T00:21:31.476Z,93.60
2019-01-08T00:23:58.445Z,93.60
2019-01-08T00:26:26.763Z,93.10
2019-01-08T00:28:53.717Z,93.40
2019-01-08T00:31:20.648Z,93.50
2019-01-08T00:33:47.596Z,93.40
2019-01-08T00:36:14.620Z,93.20
2019-01-08T00:38:41.483Z,92.80
2019-01-08T00:41:08.404Z,92.90
2019-01-08T00:43:35.347Z,93.30
2019-01-08T00:46:02.304Z,93.10
2019-01-08T00:48:29.277Z,92.90
2019-01-08T00:50:56.244Z,92.60
2019-01-08T00:53:23.176Z,92.80
2019-01-08T00:55:50.125Z,93.30
2019-01-08T00:58:17.100Z,93.30
2019-01-08T01:00:44.023Z,93.60
2019-01-08T01:03:10.962Z,93.90
2019-01-08T01:05:37.891Z,93.80
2019-01-08T01:08:04.827Z,93.70
2019-01-08T01:10:31.802Z,93.90
2019-01-08T01:12:58.744Z,93.80
2019-01-08T01:15:25.692Z,93.60
2019-01-08T01:17:52.623Z,93.40
2019-01-08T01:20:19.600Z,93.30
2019-01-08T01:22:46.544Z,93.40
2019-01-08T01:25:13.494Z,93.40
2019-01-08T01:27:41.846Z,93.40
2019-01-08T01:30:08.852Z,92.90
2019-01-08T01:32:35.803Z,93.70
2019-01-08T01:35:02.747Z,92.90
2019-01-08T01:37:29.696Z,93.90
2019-01-08T01:39:56.616Z,94.30
2019-01-08T01:42:23.580Z,94.10
2019-01-08T01:44:50.537Z,94.60
2019-01-08T01:47:17.475Z,94.30
2019-01-08T01:49:44.437Z,95.10
2019-01-08T01:52:11.360Z,94.70
2019-01-08T01:54:38.298Z,94.50
2019-01-08T01:57:05.261Z,94.70
2019-01-08T01:59:32.184Z,94.60
2019-01-08T02:01:59.106Z,94.60
2019-01-08T02:04:26.077Z,95.00
2019-01-08T02:06:53.053Z,95.30
2019-01-08T02:09:19.987Z,95.40
2019-01-08T02:11:46.936Z,95.20
2019-01-08T02:14:13.863Z,95.10
2019-01-08T02:16:40.792Z,94.80
2019-01-08T02:19:07.760Z,94.50
2019-01-08T02:21:34.694Z,94.50
2019-01-08T02:24:01.637Z,94.70
2019-01-08T02:26:28.579Z,94.80
2019-01-08T02:28:55.971Z,94.50
2019-01-08T02:31:22.907Z,95.10
2019-01-08T02:33:49.844Z,94.90
2019-01-08T02:36:16.781Z,94.90
2019-01-08T02:38:43.712Z,95.30
2019-01-08T02:41:11.565Z,95.50
2019-01-08T02:43:38.455Z,95.60
2019-01-08T02:46:05.553Z,95.70
2019-01-08T02:48:32.461Z,95.60
2019-01-08T02:50:59.389Z,95.70
2019-01-08T02:53:26.343Z,96.00
2019-01-08T02:55:53.315Z,95.60
2019-01-08T02:58:20.274Z,95.70
2019-01-08T03:00:47.239Z,95.90
2019-01-08T03:03:14.190Z,96.10
2019-01-08T03:05:41.132Z,96.30
2019-01-08T03:08:08.059Z,96.00
2019-01-08T03:10:35.030Z,95.50
2019-01-08T03:13:02.009Z,95.30
2019-01-08T03:15:28.945Z,95.50
2019-01-08T03:17:55.919Z,95.50
2019-01-08T03:20:22.861Z,95.60
2019-01-08T03:22:49.796Z,95.60
2019-01-08T03:25:16.781Z,95.30
2019-01-08T03:27:43.720Z,95.90
2019-01-08T03:30:12.210Z,96.00
2019-01-08T03:32:39.193Z,95.90
2019-01-08T03:35:06.108Z,96.10
2019-01-08T03:37:33.053Z,96.30
2019-01-08T03:39:59.997Z,96.70
2019-01-08T03:42:26.956Z,96.30
2019-01-08T03:44:53.903Z,96.30
2019-01-08T03:47:20.862Z,96.50
2019-01-08T03:49:47.824Z,96.50
2019-01-08T03:52:14.747Z,96.50
2019-01-08T03:54:41.691Z,96.60
2019-01-08T03:57:08.608Z,96.70
2019-01-08T03:59:41.872Z,96.90
2019-01-08T04:02:02.490Z,96.90
2019-01-08T04:04:29.475Z,97.10
2019-01-08T04:06:56.424Z,97.00
2019-01-08T04:09:23.433Z,97.10
2019-01-08T04:11:50.402Z,97.30
2019-01-08T04:14:17.288Z,97.60
2019-01-08T04:16:44.260Z,97.50
2019-01-08T04:19:11.192Z,97.50
2019-01-08T04:21:38.129Z,97.40
2019-01-08T04:24:06.634Z,98.10
2019-01-08T04:26:33.701Z,97.30
2019-01-08T04:29:00.609Z,97.50
2019-01-08T04:31:28.917Z,97.20
2019-01-08T04:33:55.847Z,97.30
2019-01-08T04:36:22.780Z,97.30
2019-01-08T04:38:49.736Z,97.50
2019-01-08T04:41:16.700Z,97.10
2019-01-08T04:43:43.627Z,97.20
2019-01-08T04:46:10.572Z,97.00
2019-01-08T04:48:37.516Z,96.60
2019-01-08T04:51:04.456Z,97.00
2019-01-08T04:53:31.407Z,96.90
2019-01-08T04:55:58.859Z,96.90
2019-01-08T04:58:25.825Z,97.20
2019-01-08T05:00:52.800Z,96.90
2019-01-08T05:03:19.736Z,96.80
2019-01-08T05:05:46.706Z,96.50
2019-01-08T05:08:13.628Z,97.00
2019-01-08T05:10:40.559Z,96.50
2019-01-08T05:13:08.168Z,96.80
2019-01-08T05:15:35.103Z,96.10
2019-01-08T05:18:02.021Z,96.40
2019-01-08T05:20:28.947Z,96.40
2019-01-08T05:22:55.883Z,96.30
2019-01-08T05:25:22.815Z,96.20
2019-01-08T05:27:49.765Z,96.20
2019-01-08T05:30:16.720Z,96.20
2019-01-08T05:32:44.093Z,96.50
2019-01-08T05:35:11.027Z,96.40
2019-01-08T05:37:37.965Z,96.30
2019-01-08T05:40:05.016Z,96.30
2019-01-08T05:42:31.939Z,96.50
2019-01-08T05:44:58.912Z,96.30
2019-01-08T05:47:25.846Z,96.50
2019-01-08T05:49:52.776Z,96.40
2019-01-08T05:52:19.732Z,96.30
2019-01-08T05:54:46.668Z,96.30
2019-01-08T05:57:13.625Z,96.20
2019-01-08T05:59:40.598Z,96.50
2019-01-08T06:02:07.549Z,96.20
2019-01-08T06:04:34.496Z,96.10
2019-01-08T06:07:01.464Z,96.10
2019-01-08T06:09:28.417Z,96.00
2019-01-08T06:11:55.356Z,96.10
2019-01-08T06:14:22.325Z,95.90
2019-01-08T06:16:49.243Z,95.80
2019-01-08T06:19:16.172Z,95.80
2019-01-08T06:21:43.120Z,95.70
2019-01-08T06:24:10.043Z,95.70
2019-01-08T06:26:36.974Z,95.80
2019-01-08T06:29:03.922Z,95.90
2019-01-08T06:31:30.845Z,96.10
2019-01-08T06:33:58.081Z,96.20
2019-01-08T06:36:26.231Z,96.20
2019-01-08T06:38:52.037Z,96.10
2019-01-08T06:41:18.988Z,96.20
2019-01-08T06:43:45.989Z,95.70
2019-01-08T06:46:12.923Z,96.10
2019-01-08T06:48:39.881Z,95.70
2019-01-08T06:51:06.815Z,95.70
2019-01-08T06:53:33.745Z,95.80
2019-01-08T06:56:00.675Z,95.80
2019-01-08T06:58:27.627Z,95.80
2019-01-08T07:00:54.563Z,95.70
2019-01-08T07:03:21.494Z,95.90
2019-01-08T07:05:48.454Z,95.80
2019-01-08T07:08:15.382Z,95.90
2019-01-08T07:10:42.300Z,95.90
2019-01-08T07:13:09.244Z,95.60
2019-01-08T07:15:36.232Z,95.80
2019-01-08T07:18:03.177Z,96.20
2019-01-08T07:20:30.111Z,96.70
2019-01-08T07:22:57.063Z,96.40
2019-01-08T07:25:23.992Z,96.40
2019-01-08T07:27:50.952Z,96.50
2019-01-08T07:30:17.919Z,96.60
2019-01-08T07:32:44.856Z,96.40
2019-01-08T07:35:12.008Z,96.40
2019-01-08T07:37:38.936Z,96.40
2019-01-08T07:40:06.230Z,96.50
2019-01-08T07:42:33.187Z,96.10
2019-01-08T07:45:00.186Z,96.50
2019-01-08T07:47:27.040Z,96.90
2019-01-08T07:49:53.980Z,96.70
2019-01-08T07:52:20.923Z,96.50
2019-01-08T07:54:47.844Z,96.60
2019-01-08T07:57:14.788Z,96.90
2019-01-08T07:59:41.724Z,97.00
2019-01-08T08:02:08.657Z,96.90
2019-01-08T08:04:35.630Z,96.90
2019-01-08T08:07:02.583Z,97.00
2019-01-08T08:09:29.503Z,97.30
2019-01-08T08:11:56.531Z,97.10
2019-01-08T08:14:23.452Z,97.20
2019-01-08T08:16:50.400Z,97.30
2019-01-08T08:19:17.352Z,97.10
2019-01-08T08:21:44.291Z,97.20
2019-01-08T08:24:11.219Z,97.20
2019-01-08T08:26:38.180Z,97.20
2019-01-08T08:29:05.138Z,96.70
2019-01-08T08:31:32.079Z,96.50
2019-01-08T08:33:59.023Z,96.40
2019-01-08T08:36:28.284Z,95.90
2019-01-08T08:38:55.226Z,95.90
2019-01-08T08:41:22.173Z,95.70
2019-01-08T08:43:49.142Z,96.20
2019-01-08T08:46:16.101Z,96.30
2019-01-08T08:48:43.064Z,96.30
2019-01-08T08:51:09.993Z,96.20
2019-01-08T08:53:36.935Z,96.10
2019-01-08T08:56:03.893Z,96.30
2019-01-08T08:58:30.831Z,96.10
2019-01-08T09:00:57.781Z,96.00
2019-01-08T09:03:24.743Z,95.70
2019-01-08T09:05:51.899Z,95.30
2019-01-08T09:08:18.835Z,95.10
2019-01-08T09:10:45.805Z,94.70
2019-01-08T09:13:12.719Z,94.50
2019-01-08T09:15:39.658Z,94.00
2019-01-08T09:18:06.599Z,93.50
2019-01-08T09:20:33.532Z,92.70
2019-01-08T09:23:00.476Z,92.60
2019-01-08T09:25:27.417Z,91.70
2019-01-08T09:27:54.418Z,87.00
2019-01-08T09:30:21.289Z,80.10
2019-01-08T09:32:48.243Z,70.80
2019-01-08T09:35:15.172Z,64.60
2019-01-08T09:37:43.416Z,60.70
2019-01-08T09:40:10.372Z,59.70
2019-01-08T09:42:37.307Z,59.80
2019-01-08T09:45:05.136Z,60.90
2019-01-08T09:47:32.090Z,63.60
2019-01-08T09:49:59.032Z,67.00
2019-01-08T09:52:25.956Z,71.30
2019-01-08T09:54:52.914Z,73.40
2019-01-08T09:57:19.860Z,69.40
2019-01-08T09:59:46.825Z,63.60
2019-01-08T10:02:13.770Z,60.20
2019-01-08T10:04:40.719Z,56.80
2019-01-08T10:07:07.650Z,54.90
2019-01-08T10:09:34.615Z,52.90
2019-01-08T10:12:01.556Z,50.80
2019-01-08T10:14:28.476Z,50.50
2019-01-08T10:16:55.453Z,48.30
2019-01-08T10:19:22.390Z,49.10
2019-01-08T10:21:49.325Z,52.70
2019-01-08T10:24:16.270Z,55.80
2019-01-08T10:26:43.217Z,59.90
2019-01-08T10:29:10.193Z,62.00
2019-01-08T10:31:37.140Z,64.70
2019-01-08T10:34:04.068Z,67.90
2019-01-08T10:36:31.013Z,69.90
2019-01-08T10:38:59.349Z,72.10
2019-01-08T10:41:26.272Z,75.50
2019-01-08T10:43:53.199Z,77.40
2019-01-08T10:46:20.176Z,77.00
2019-01-08T10:48:47.103Z,77.80
2019-01-08T10:51:14.032Z,75.00
2019-01-08T10:53:41.040Z,66.70
2019-01-08T10:56:07.958Z,59.60
2019-01-08T10:58:34.889Z,54.80
2019-01-08T11:01:01.871Z,53.20
2019-01-08T11:03:28.823Z,54.50
2019-01-08T11:05:55.822Z,55.60
2019-01-08T11:08:22.763Z,55.30
2019-01-08T11:10:49.706Z,54.50
2019-01-08T11:13:16.664Z,51.30
2019-01-08T11:15:43.604Z,48.60
2019-01-08T11:18:10.551Z,48.50
2019-01-08T11:20:37.475Z,47.40
2019-01-08T11:23:04.468Z,50.40
2019-01-08T11:25:31.486Z,53.70
2019-01-08T11:27:58.414Z,58.30
2019-01-08T11:30:25.400Z,63.60
2019-01-08T11:32:52.333Z,66.60
2019-01-08T11:35:19.272Z,72.00
2019-01-08T11:37:46.244Z,74.30
2019-01-08T11:40:14.624Z,74.60
2019-01-08T11:42:41.555Z,74.80
2019-01-08T11:45:09.048Z,74.40
2019-01-08T11:47:35.977Z,75.00
2019-01-08T11:50:04.818Z,74.40
2019-01-08T11:52:31.065Z,76.60
2019-01-08T11:54:57.991Z,78.10
2019-01-08T11:57:24.921Z,76.70
2019-01-08T11:59:51.882Z,75.60
2019-01-08T12:02:18.799Z,77.10
2019-01-08T12:04:45.771Z,76.10
2019-01-08T12:07:12.716Z,77.70
2019-01-08T12:09:39.648Z,79.40
2019-01-08T12:12:06.846Z,79.90
2019-01-08T12:14:33.785Z,78.60
2019-01-08T12:17:00.719Z,77.60
2019-01-08T12:19:27.645Z,78.60
2019-01-08T12:21:54.587Z,79.60
2019-01-08T12:24:21.553Z,76.90
2019-01-08T12:26:48.488Z,76.50
2019-01-08T12:29:15.457Z,76.20
2019-01-08T12:31:42.389Z,76.40
2019-01-08T12:34:09.310Z,76.00
2019-01-08T12:36:36.256Z,75.10
2019-01-08T12:39:04.671Z,73.40
2019-01-08T12:41:31.987Z,71.70
2019-01-08T12:43:58.939Z,72.40
2019-01-08T12:46:25.884Z,69.80
2019-01-08T12:48:52.811Z,68.10
2019-01-08T12:51:19.758Z,70.10
2019-01-08T12:53:46.688Z,71.80
2019-01-08T12:56:13.632Z,73.00
2019-01-08T12:58:40.575Z,74.30
2019-01-08T13:01:07.509Z,75.60
2019-01-08T13:03:34.433Z,76.50
2019-01-08T13:06:01.391Z,77.50
2019-01-08T13:08:28.324Z,78.00
2019-01-08T13:10:55.256Z,77.80
2019-01-08T13:13:22.233Z,78.50
2019-01-08T13:15:49.155Z,78.00
2019-01-08T13:18:16.087Z,77.80
2019-01-08T13:20:43.053Z,79.10
2019-01-08T13:23:09.978Z,79.40
2019-01-08T13:25:36.919Z,80.10
2019-01-08T13:28:03.864Z,80.50
2019-01-08T13:30:30.792Z,81.50
2019-01-08T13:32:57.740Z,82.60
2019-01-08T13:35:24.707Z,83.70
2019-01-08T13:37:51.675Z,84.70
2019-01-08T13:40:18.607Z,85.50
2019-01-08T13:42:46.773Z,87.60
2019-01-08T13:45:13.714Z,88.90
2019-01-08T13:47:40.696Z,90.20
2019-01-08T13:50:08.167Z,90.20
2019-01-08T13:52:35.107Z,90.40
2019-01-08T13:55:02.041Z,90.30
2019-01-08T13:57:28.977Z,90.40
2019-01-08T13:59:55.933Z,90.50
2019-01-08T14:02:22.869Z,90.70
2019-01-08T14:04:49.823Z,90.70
2019-01-08T14:07:16.763Z,90.70
2019-01-08T14:09:43.719Z,90.70
2019-01-08T14:12:10.668Z,90.80
2019-01-08T14:14:37.613Z,90.60
2019-01-08T14:17:04.528Z,89.50
2019-01-08T14:19:31.472Z,90.30
2019-01-08T14:21:58.412Z,90.60
2019-01-08T14:24:25.332Z,90.20
2019-01-08T14:26:52.297Z,90.20
2019-01-08T14:29:19.240Z,90.40
2019-01-08T14:31:46.163Z,90.20
2019-01-08T14:34:13.139Z,90.40
2019-01-08T14:36:40.068Z,90.50
2019-01-08T14:39:07.011Z,90.70
2019-01-08T14:41:33.975Z,91.10
2019-01-08T14:44:02.336Z,91.10
2019-01-08T14:46:29.339Z,91.50
2019-01-08T14:48:56.238Z,91.40
2019-01-08T14:51:23.174Z,91.60
2019-01-08T14:53:50.111Z,91.80
2019-01-08T14:56:17.075Z,92.20
2019-01-08T14:58:44.016Z,91.90
2019-01-08T15:01:10.947Z,91.80
2019-01-08T15:03:37.911Z,91.80
2019-01-08T15:06:04.852Z,92.00
2019-01-08T15:08:31.787Z,91.70
2019-01-08T15:10:58.744Z,91.60
2019-01-08T15:13:25.677Z,91.50
2019-01-08T15:15:52.626Z,91.50
2019-01-08T15:18:19.556Z,91.60
2019-01-08T15:20:46.493Z,90.20
2019-01-08T15:23:13.428Z,91.10
2019-01-08T15:25:40.384Z,91.00
2019-01-08T15:28:07.307Z,91.20
2019-01-08T15:30:34.252Z,90.90
2019-01-08T15:33:01.200Z,90.60
2019-01-08T15:35:28.123Z,91.20
2019-01-08T15:37:55.051Z,91.20
2019-01-08T15:40:22.024Z,91.10
2019-01-08T15:42:48.955Z,91.10
2019-01-08T15:45:18.583Z,91.00
2019-01-08T15:47:45.548Z,91.20
2019-01-08T15:50:12.483Z,91.20
2019-01-08T15:52:39.424Z,91.50
2019-01-08T15:55:06.368Z,91.60
2019-01-08T15:57:33.295Z,92.00
2019-01-08T16:00:00.240Z,91.50
2019-01-08T16:02:27.194Z,91.80
2019-01-08T16:04:54.128Z,91.80
2019-01-08T16:07:21.071Z,91.60
2019-01-08T16:09:48.874Z,91.50
2019-01-08T16:12:14.986Z,91.60
2019-01-08T16:14:41.912Z,91.60
2019-01-08T16:17:08.872Z,92.10
2019-01-08T16:19:35.848Z,91.60
2019-01-08T16:22:02.792Z,91.80
2019-01-08T16:24:29.769Z,91.70
2019-01-08T16:26:56.716Z,91.70
2019-01-08T16:29:23.655Z,92.20
2019-01-08T16:31:50.617Z,92.80
2019-01-08T16:34:17.539Z,93.10
2019-01-08T16:36:44.529Z,93.10
2019-01-08T16:39:11.454Z,93.60
2019-01-08T16:41:38.377Z,93.30
2019-01-08T16:44:05.336Z,92.90
2019-01-08T16:46:33.108Z,93.00
2019-01-08T16:49:00.037Z,93.40
2019-01-08T16:51:26.965Z,93.70
2019-01-08T16:53:53.905Z,93.20
2019-01-08T16:56:20.846Z,93.10
2019-01-08T16:58:47.785Z,92.90
2019-01-08T17:01:14.777Z,93.10
2019-01-08T17:03:41.712Z,93.20
2019-01-08T17:06:08.644Z,93.10
2019-01-08T17:08:35.588Z,92.90
2019-01-08T17:11:02.536Z,93.10
2019-01-08T17:13:29.469Z,93.10
2019-01-08T17:15:56.440Z,92.80
2019-01-08T17:18:23.359Z,92.90
2019-01-08T17:20:50.292Z,92.90
2019-01-08T17:23:17.221Z,93.50
2019-01-08T17:25:47.975Z,93.70
2019-01-08T17:28:11.087Z,93.70
2019-01-08T17:30:38.035Z,93.60
2019-01-08T17:33:05.117Z,93.40
2019-01-08T17:35:32.048Z,93.60
2019-01-08T17:37:59.008Z,93.90
2019-01-08T17:40:25.967Z,93.80
2019-01-08T17:42:52.885Z,93.60
2019-01-08T17:45:19.847Z,93.60
2019-01-08T17:47:48.225Z,93.60
2019-01-08T17:50:15.159Z,93.70
2019-01-08T17:52:42.100Z,93.70
2019-01-08T17:55:09.049Z,93.30
2019-01-08T17:57:35.975Z,93.50
2019-01-08T18:00:03.920Z,94.00
2019-01-08T18:02:30.859Z,93.90
2019-01-08T18:04:57.797Z,93.90
2019-01-08T18:07:24.740Z,93.70
2019-01-08T18:09:51.680Z,93.60
2019-01-08T18:12:18.644Z,93.20
2019-01-08T18:14:45.608Z,93.20
2019-01-08T18:17:12.578Z,93.10
2019-01-08T18:19:39.511Z,92.80
2019-01-08T18:22:06.479Z,93.00
2019-01-08T18:24:33.411Z,93.00
2019-01-08T18:27:00.418Z,92.70
2019-01-08T18:29:27.377Z,92.40
2019-01-08T18:31:54.620Z,92.40
2019-01-08T18:34:21.553Z,92.30
2019-01-08T18:36:48.533Z,91.90
2019-01-08T18:39:15.461Z,91.90
2019-01-08T18:41:42.428Z,91.50
2019-01-08T18:44:09.371Z,91.80
2019-01-08T18:46:36.303Z,91.70
2019-01-08T18:49:04.943Z,92.20
2019-01-08T18:51:32.132Z,92.00
2019-01-08T18:53:59.051Z,92.00
2019-01-08T18:56:25.990Z,92.10
2019-01-08T18:58:52.939Z,91.90
2019-01-08T19:01:19.885Z,92.00
2019-01-08T19:03:46.825Z,91.60
2019-01-08T19:06:13.809Z,91.90
2019-01-08T19:08:52.393Z,91.50
2019-01-08T19:11:19.352Z,91.50
2019-01-08T19:13:46.295Z,91.30
2019-01-08T19:16:13.217Z,90.90
2019-01-08T19:18:40.201Z,90.80
2019-01-08T19:21:07.123Z,90.90
2019-01-08T19:23:34.049Z,90.40
2019-01-08T19:26:00.993Z,90.50
2019-01-08T19:28:27.937Z,90.10
2019-01-08T19:30:54.874Z,90.20
2019-01-08T19:33:21.837Z,90.20
2019-01-08T19:35:48.780Z,90.00
2019-01-08T19:38:15.704Z,90.60
2019-01-08T19:40:42.669Z,90.00
2019-01-08T19:43:09.620Z,91.10
2019-01-08T19:45:36.573Z,91.50
2019-01-08T19:48:03.586Z,91.80
2019-01-08T19:50:32.300Z,92.00
2019-01-08T19:52:59.232Z,92.00
2019-01-08T19:55:26.201Z,92.10
2019-01-08T19:57:53.131Z,91.90
2019-01-08T20:00:20.082Z,92.00
2019-01-08T20:02:47.058Z,92.00
2019-01-08T20:05:14.008Z,91.70
2019-01-08T20:07:41.071Z,91.80
2019-01-08T20:10:08.073Z,92.00
2019-01-08T20:12:35.011Z,91.70
2019-01-08T20:15:01.956Z,91.50
2019-01-08T20:17:30.939Z,91.40
2019-01-08T20:19:55.902Z,91.00
2019-01-08T20:22:22.861Z,91.30
2019-01-08T20:24:49.823Z,91.30
2019-01-08T20:27:16.787Z,91.30
2019-01-08T20:29:43.731Z,91.20
2019-01-08T20:32:10.701Z,90.30
2019-01-08T20:34:37.641Z,90.30
2019-01-08T20:37:04.588Z,90.60
2019-01-08T20:39:31.588Z,90.40
2019-01-08T20:41:58.536Z,90.50
2019-01-08T20:44:25.468Z,90.10
2019-01-08T20:46:52.429Z,90.40
2019-01-08T20:49:19.359Z,90.40
2019-01-08T20:51:46.805Z,90.00
2019-01-08T20:54:13.791Z,89.90
2019-01-08T20:56:40.733Z,89.80
2019-01-08T20:59:07.668Z,90.00
2019-01-08T21:01:34.626Z,90.20
2019-01-08T21:04:01.552Z,90.20
2019-01-08T21:06:28.477Z,90.10
2019-01-08T21:08:55.426Z,90.00
2019-01-08T21:11:22.364Z,89.80
2019-01-08T21:13:49.311Z,89.80
2019-01-08T21:16:16.275Z,89.30
2019-01-08T21:18:43.233Z,89.10
2019-01-08T21:21:10.200Z,88.80
2019-01-08T21:23:37.161Z,88.40
2019-01-08T21:26:04.113Z,88.10
2019-01-08T21:28:31.451Z,87.60
2019-01-08T21:30:58.005Z,88.40
2019-01-08T21:33:24.940Z,89.00
2019-01-08T21:35:51.884Z,86.80
2019-01-08T21:38:18.842Z,88.00
2019-01-08T21:40:45.783Z,87.90
2019-01-08T21:43:12.724Z,88.80
2019-01-08T21:45:39.677Z,89.20
2019-01-08T21:48:06.623Z,89.50
2019-01-08T21:50:33.623Z,90.20
2019-01-08T21:53:00.855Z,90.10
2019-01-08T21:55:27.821Z,90.20
2019-01-08T21:57:54.781Z,90.50
2019-01-08T22:00:21.708Z,90.50
2019-01-08T22:02:48.737Z,90.20
2019-01-08T22:05:15.597Z,90.50
2019-01-08T22:07:42.558Z,90.30
2019-01-08T22:10:09.507Z,90.10
2019-01-08T22:12:36.457Z,90.00
2019-01-08T22:15:03.559Z,90.00
2019-01-08T22:17:30.498Z,89.70
2019-01-08T22:19:57.468Z,89.70
2019-01-08T22:22:24.482Z,90.00
2019-01-08T22:24:51.384Z,89.30
2019-01-08T22:27:18.328Z,89.00
2019-01-08T22:29:45.303Z,89.70
2019-01-08T22:32:12.218Z,89.40
2019-01-08T22:34:39.159Z,89.20
2019-01-08T22:37:06.121Z,89.40
2019-01-08T22:39:33.064Z,90.00
2019-01-08T22:42:00.008Z,90.00
2019-01-08T22:44:26.988Z,90.10
2019-01-08T22:46:55.382Z,90.00
2019-01-08T22:49:20.875Z,89.30
2019-01-08T22:51:47.871Z,89.90
2019-01-08T22:54:15.535Z,90.20
2019-01-08T22:56:42.473Z,90.20
2019-01-08T22:59:09.417Z,90.20
2019-01-08T23:01:41.288Z,90.90
2019-01-08T23:04:10.097Z,90.30
2019-01-08T23:06:37.051Z,90.20
2019-01-08T23:09:06.109Z,90.00
2019-01-08T23:11:33.053Z,90.30
2019-01-08T23:14:00.014Z,91.00
2019-01-08T23:16:26.942Z,90.60
2019-01-08T23:18:53.893Z,90.70
2019-01-08T23:21:20.856Z,90.80
2019-01-08T23:23:47.816Z,90.70
2019-01-08T23:26:14.779Z,90.50
2019-01-08T23:28:41.716Z,90.50
2019-01-08T23:31:08.647Z,90.60
2019-01-08T23:33:35.594Z,90.50
2019-01-08T23:36:02.511Z,90.70
2019-01-08T23:38:29.448Z,90.30
2019-01-08T23:40:56.403Z,90.20
2019-01-08T23:43:23.352Z,90.30
2019-01-08T23:45:50.289Z,90.20
2019-01-08T23:48:17.244Z,90.30
2019-01-08T23:50:44.196Z,90.60
2019-01-08T23:53:18.863Z,90.10
2019-01-08T23:55:48.457Z,90.50
2019-01-08T23:58:15.400Z,90.30
